Time;durP1;ratioP1;P1;durP2;ratioP2;P2;SDS_P1;SDS_P2;PMS_P1;PMS_P2;Temp;Humidity;BMP_temperature;BMP_pressure;BME280_temperature;BME280_humidity;BME280_pressure;Samples;Min_cycle;Max_cycle;Signal;HPM_P1;HPM_P2
2022/11/05 00:10:03;;;;;;;19.40;9.90;;;;;;;6.67;98.26;100541.35;103986;1296;72959;-75
2022/11/05 00:18:04;;;;;;;19.80;9.70;;;;;;;6.67;98.53;100545.98;104238;1294;73779;-76
2022/11/05 00:20:31;;;;;;;18.10;9.60;;;;;;;6.66;98.52;100548.67;103836;1299;59150;-76
2022/11/05 00:25:59;;;;;;;22.50;10.00;;;;;;;6.63;98.40;100556.55;104031;1302;60098;-77
2022/11/05 00:28:28;;;;;;;17.10;9.30;;;;;;;6.60;98.34;100559.60;103737;1301;62451;-76
2022/11/05 00:31:00;;;;;;;17.00;10.60;;;;;;;6.59;98.63;100558.73;103660;1301;74056;-77
2022/11/05 00:33:26;;;;;;;19.40;10.30;;;;;;;6.57;98.79;100561.16;104448;1298;70551;-77
2022/11/05 00:35:54;;;;;;;18.20;10.10;;;;;;;6.57;99.14;100564.67;104886;1297;72437;-77
2022/11/05 00:38:20;;;;;;;21.20;9.80;;;;;;;6.57;99.18;100566.67;104127;1301;61315;-77
2022/11/05 00:40:47;;;;;;;19.80;10.00;;;;;;;6.57;98.65;100567.00;104331;1298;59984;-77
2022/11/05 00:45:58;;;;;;;16.80;8.90;;;;;;;6.53;98.23;100570.55;104505;1287;70339;-77
2022/11/05 00:51:10;;;;;;;20.10;10.00;;;;;;;6.48;98.64;100578.04;104977;1292;61172;-77
2022/11/05 00:53:37;;;;;;;20.80;9.90;;;;;;;6.45;98.39;100578.27;104584;1294;61277;-76
2022/11/05 00:56:03;;;;;;;20.10;9.40;;;;;;;6.44;98.34;100582.66;104339;1294;61180;-75
2022/11/05 00:58:30;;;;;;;17.70;9.30;;;;;;;6.42;98.08;100584.11;104003;1303;62002;-77
2022/11/05 01:00:58;;;;;;;17.50;9.30;;;;;;;6.40;98.14;100582.73;104014;1301;62233;-76
2022/11/05 01:03:31;;;;;;;20.40;9.50;;;;;;;6.37;98.14;100586.73;104302;1301;62344;-77
2022/11/05 01:06:11;;;;;;;17.90;9.00;;;;;;;6.33;97.98;100583.54;104621;1300;61164;-76
2022/11/05 01:08:39;;;;;;;20.20;9.60;;;;;;;6.30;98.05;100588.44;105569;1294;75493;-76
2022/11/05 01:11:33;;;;;;;20.10;9.20;;;;;;;6.26;98.12;100591.41;105586;1288;68861;-76
2022/11/05 01:14:01;;;;;;;23.20;9.60;;;;;;;6.23;98.12;100591.08;105625;1288;73998;-76
2022/11/05 01:16:28;;;;;;;20.00;10.10;;;;;;;6.20;98.40;100596.64;103977;1296;61074;-76
2022/11/05 01:18:54;;;;;;;21.60;10.80;;;;;;;6.18;98.44;100599.77;104361;1301;61441;-77
2022/11/05 01:21:21;;;;;;;21.50;10.00;;;;;;;6.16;98.51;100603.48;104064;1298;59168;-77
2022/11/05 01:23:48;;;;;;;19.10;10.20;;;;;;;6.13;98.59;100607.27;104290;1291;69651;-77
2022/11/05 01:26:14;;;;;;;24.50;10.30;;;;;;;6.11;98.57;100608.87;104229;1292;70826;-77
2022/11/05 01:28:40;;;;;;;22.50;10.40;;;;;;;6.09;98.76;100609.05;104954;1284;59425;-76
2022/11/05 01:31:07;;;;;;;20.60;10.40;;;;;;;6.07;99.11;100613.30;104896;1291;60194;-77
2022/11/05 01:33:34;;;;;;;24.70;11.00;;;;;;;6.05;99.04;100610.27;104126;1286;59819;-77
2022/11/05 01:36:00;;;;;;;24.40;11.40;;;;;;;6.04;99.21;100606.38;104189;1291;59556;-75
2022/11/05 01:38:27;;;;;;;24.30;10.80;;;;;;;6.03;99.27;100608.25;104150;1292;61321;-75
2022/11/05 01:40:53;;;;;;;26.80;11.40;;;;;;;6.01;99.45;100610.86;104189;1295;61294;-75
2022/11/05 01:43:22;;;;;;;23.90;11.30;;;;;;;5.99;99.36;100608.98;104206;1301;59701;-76
2022/11/05 01:45:51;;;;;;;21.60;11.50;;;;;;;5.97;99.28;100610.77;104745;1299;74935;-76
2022/11/05 01:48:21;;;;;;;24.20;11.40;;;;;;;5.94;99.33;100608.72;104525;1301;69554;-75
2022/11/05 01:50:58;;;;;;;22.60;10.80;;;;;;;5.93;99.36;100610.08;104619;1294;71155;-76
2022/11/05 01:53:47;;;;;;;25.00;10.50;;;;;;;5.91;99.51;100610.75;104038;1281;61408;-76
2022/11/05 01:56:22;;;;;;;23.10;11.50;;;;;;;5.90;99.51;100615.35;104133;1287;61637;-76
2022/11/05 01:58:56;;;;;;;24.00;11.40;;;;;;;5.89;99.67;100609.32;103704;1298;73455;-76
2022/11/05 02:01:23;;;;;;;24.00;11.10;;;;;;;5.87;99.67;100611.98;104557;1297;72121;-76
2022/11/05 02:03:53;;;;;;;27.10;11.60;;;;;;;5.87;100.00;100611.98;104768;1290;72797;-75
2022/11/05 02:06:20;;;;;;;22.80;11.40;;;;;;;5.86;100.00;100613.81;104277;1285;61299;-77
2022/11/05 02:09:07;;;;;;;21.70;10.10;;;;;;;5.85;100.00;100615.67;104684;1297;61096;-76
2022/11/05 02:11:34;;;;;;;22.60;11.10;;;;;;;5.85;99.98;100614.35;104566;1292;73141;-76
2022/11/05 02:14:00;;;;;;;26.60;11.20;;;;;;;5.82;100.00;100617.74;104156;1292;70810;-76
2022/11/05 02:16:39;;;;;;;24.20;11.10;;;;;;;5.80;100.00;100612.81;103787;1294;60111;-76
2022/11/05 02:19:18;;;;;;;24.60;10.90;;;;;;;5.79;100.00;100609.22;104098;1285;61805;-76
2022/11/05 02:21:50;;;;;;;28.10;11.30;;;;;;;5.79;100.00;100614.20;104993;1292;61287;-76
2022/11/05 02:24:30;;;;;;;23.10;10.60;;;;;;;5.75;100.00;100615.98;104554;1299;73132;-75
2022/11/05 02:27:17;;;;;;;24.90;10.40;;;;;;;5.73;100.00;100618.76;104651;1290;69920;-76
2022/11/05 02:30:03;;;;;;;20.10;10.00;;;;;;;5.72;100.00;100617.27;104296;1294;71097;-75
2022/11/05 02:32:45;;;;;;;24.10;10.30;;;;;;;5.71;100.00;100616.69;104352;1295;61397;-76
2022/11/05 02:35:28;;;;;;;24.60;10.20;;;;;;;5.71;100.00;100616.84;104490;1291;61283;-76
2022/11/05 02:38:23;;;;;;;22.70;10.10;;;;;;;5.70;100.00;100617.13;104248;1297;73531;-77
2022/11/05 02:41:11;;;;;;;24.30;10.60;;;;;;;5.69;100.00;100620.17;104702;1282;70959;-77
2022/11/05 02:44:06;;;;;;;21.20;9.80;;;;;;;5.68;100.00;100621.98;104227;1299;74172;-77
2022/11/05 02:46:53;;;;;;;23.80;9.30;;;;;;;5.68;100.00;100623.98;104132;1277;60964;-76
2022/11/05 02:49:47;;;;;;;24.60;9.50;;;;;;;5.66;100.00;100621.66;104527;1291;63009;-78
2022/11/05 02:52:24;;;;;;;24.70;10.10;;;;;;;5.66;100.00;100617.88;104121;1299;74422;-77
2022/11/05 02:55:24;;;;;;;19.50;9.20;;;;;;;5.65;100.00;100616.89;104268;1286;69849;-76
2022/11/05 02:57:51;;;;;;;22.10;9.20;;;;;;;5.65;100.00;100618.13;104876;1299;72272;-79
2022/11/05 03:00:49;;;;;;;21.60;9.00;;;;;;;5.64;100.00;100616.41;104545;1292;61367;-76
2022/11/05 03:03:26;;;;;;;21.30;9.20;;;;;;;5.64;100.00;100620.16;104808;1293;58982;-76
2022/11/05 03:06:31;;;;;;;19.40;9.20;;;;;;;5.63;100.00;100621.29;104250;1300;74140;-76
2022/11/05 03:09:42;;;;;;;16.80;7.60;;;;;;;5.61;100.00;100620.44;104372;1291;68582;-77
2022/11/05 03:12:38;;;;;;;18.40;8.10;;;;;;;5.61;100.00;100622.05;103626;1299;71725;-76
2022/11/05 03:15:38;;;;;;;23.00;7.90;;;;;;;5.59;100.00;100629.69;104514;1298;61389;-76
2022/11/05 03:18:19;;;;;;;25.30;8.20;;;;;;;5.58;100.00;100630.86;104377;1291;60420;-76
2022/11/05 03:21:05;;;;;;;17.40;7.50;;;;;;;5.57;100.00;100633.98;104056;1301;73537;-77
2022/11/05 03:23:43;;;;;;;21.80;8.00;;;;;;;5.55;100.00;100636.27;104833;1288;69580;-76
2022/11/05 03:26:17;;;;;;;19.00;7.80;;;;;;;5.54;100.00;100644.42;104057;1298;72490;-76
2022/11/05 03:28:50;;;;;;;17.40;7.10;;;;;;;5.53;100.00;100646.27;104166;1292;62824;-77
2022/11/05 03:31:19;;;;;;;20.50;7.70;;;;;;;5.51;100.00;100645.38;104173;1298;61212;-77
2022/11/05 03:33:47;;;;;;;19.70;7.60;;;;;;;5.50;100.00;100646.71;104384;1303;72719;-76
2022/11/05 03:36:25;;;;;;;17.20;7.30;;;;;;;5.49;100.00;100646.30;104054;1299;70749;-77
2022/11/05 03:38:55;;;;;;;19.60;7.00;;;;;;;5.48;100.00;100646.92;104309;1295;70694;-76
2022/11/05 03:41:24;;;;;;;17.00;7.70;;;;;;;5.46;100.00;100650.75;104535;1294;60972;-76
2022/11/05 03:43:54;;;;;;;17.40;6.50;;;;;;;5.44;100.00;100655.15;104000;1292;61297;-76
2022/11/05 03:46:28;;;;;;;17.60;6.60;;;;;;;5.42;100.00;100659.54;104685;1297;75004;-76
2022/11/05 03:48:59;;;;;;;23.20;7.20;;;;;;;5.40;100.00;100658.49;103927;1300;70926;-76
2022/11/05 03:51:50;;;;;;;22.80;6.90;;;;;;;5.39;100.00;100664.92;104369;1294;71007;-76
2022/11/05 03:54:16;;;;;;;19.50;6.90;;;;;;;5.39;100.00;100671.48;103823;1300;60503;-76
2022/11/05 03:57:28;;;;;;;21.30;6.80;;;;;;;5.37;100.00;100671.09;104202;1291;59616;-76
2022/11/05 03:59:55;;;;;;;18.80;6.30;;;;;;;5.36;100.00;100668.43;104578;1292;73852;-76
2022/11/05 04:02:24;;;;;;;18.50;6.20;;;;;;;5.34;100.00;100673.14;104043;1294;69743;-76
2022/11/05 04:04:52;;;;;;;17.30;6.40;;;;;;;5.32;100.00;100678.02;104023;1294;72144;-76
2022/11/05 04:18:23;;;;;;;20.20;5.70;;;;;;;5.24;100.00;100692.77;105078;1299;72163;-76
2022/11/05 04:26:22;;;;;;;15.50;5.80;;;;;;;5.20;100.00;100696.60;104295;1292;74266;-76
2022/11/05 04:31:34;;;;;;;17.10;5.50;;;;;;;5.15;100.00;100701.61;104385;1293;71888;-76
2022/11/05 04:34:01;;;;;;;15.40;5.40;;;;;;;5.14;100.00;100703.88;104291;1293;61268;-75
2022/11/05 04:36:28;;;;;;;16.60;4.90;;;;;;;5.12;100.00;100703.83;104821;1285;59412;-76
2022/11/05 04:38:55;;;;;;;18.00;5.10;;;;;;;5.11;100.00;100702.50;104307;1294;72577;-76
2022/11/05 04:41:21;;;;;;;17.40;5.10;;;;;;;5.11;100.00;100704.30;103935;1290;71250;-76
2022/11/05 04:43:48;;;;;;;16.80;5.20;;;;;;;5.11;100.00;100708.67;104059;1301;72921;-77
2022/11/05 04:46:14;;;;;;;15.60;4.90;;;;;;;5.11;100.00;100709.73;103950;1292;59383;-76
2022/11/05 04:48:41;;;;;;;14.10;4.40;;;;;;;5.10;100.00;100711.02;103887;1301;59969;-76
2022/11/05 04:51:07;;;;;;;16.10;5.40;;;;;;;5.10;100.00;100713.70;104191;1285;61162;-76
2022/11/05 04:53:34;;;;;;;15.70;4.50;;;;;;;5.08;100.00;100713.34;103992;1294;61211;-76
2022/11/05 04:56:21;;;;;;;12.30;4.40;;;;;;;5.07;100.00;100714.98;104665;1294;60480;-76
2022/11/05 04:58:48;;;;;;;16.10;4.60;;;;;;;5.06;100.00;100715.27;104300;1292;61755;-75
2022/11/05 05:01:18;;;;;;;17.60;4.60;;;;;;;5.04;100.00;100716.67;104184;1299;63052;-76
2022/11/05 05:03:52;;;;;;;15.60;4.50;;;;;;;5.02;100.00;100721.41;103756;1296;75389;-76
2022/11/05 05:06:20;;;;;;;18.60;4.90;;;;;;;5.00;100.00;100726.20;104440;1294;69512;-75
2022/11/05 05:08:48;;;;;;;15.60;4.00;;;;;;;4.97;100.00;100725.55;103504;1298;71136;-74
2022/11/05 05:11:17;;;;;;;17.20;4.60;;;;;;;4.94;100.00;100726.70;104189;1296;61207;-76
2022/11/05 05:13:44;;;;;;;13.10;3.90;;;;;;;4.92;100.00;100727.21;104695;1294;61504;-77
2022/11/05 05:16:16;;;;;;;28.90;4.70;;;;;;;4.90;100.00;100733.34;104257;1292;74778;-76
2022/11/05 05:18:42;;;;;;;13.30;4.10;;;;;;;4.87;100.00;100735.73;104082;1284;70948;-77
2022/11/05 05:23:57;;;;;;;17.00;3.90;;;;;;;4.82;100.00;100733.70;104730;1295;61124;-76
2022/11/05 05:26:24;;;;;;;18.20;4.10;;;;;;;4.80;100.00;100731.27;103799;1293;61228;-76
2022/11/05 05:28:52;;;;;;;18.70;4.10;;;;;;;4.78;100.00;100732.35;104382;1300;73538;-76
2022/11/05 05:31:19;;;;;;;17.70;4.50;;;;;;;4.75;100.00;100737.35;104481;1294;70518;-76
2022/11/05 05:33:46;;;;;;;13.50;4.40;;;;;;;4.71;100.00;100742.38;104323;1294;71116;-76
2022/11/05 05:36:12;;;;;;;18.30;4.30;;;;;;;4.68;100.00;100742.15;104658;1294;59525;-76
2022/11/05 05:38:39;;;;;;;16.40;4.40;;;;;;;4.65;100.00;100750.85;104348;1288;59490;-75
2022/11/05 05:41:06;;;;;;;17.70;4.90;;;;;;;4.62;100.00;100753.89;104214;1294;74703;-76
2022/11/05 05:43:33;;;;;;;9.90;4.10;;;;;;;4.60;100.00;100757.40;104406;1292;70824;-76
2022/11/05 05:46:04;;;;;;;18.50;4.80;;;;;;;4.58;100.00;100758.61;103805;1292;71113;-76
2022/11/05 05:48:30;;;;;;;15.10;4.70;;;;;;;4.54;100.00;100762.98;104802;1294;59082;-76
2022/11/05 05:51:06;;;;;;;15.30;4.80;;;;;;;4.50;100.00;100772.09;104374;1294;60274;-76
2022/11/05 05:53:33;;;;;;;13.80;4.80;;;;;;;4.45;100.00;100773.86;103989;1291;73159;-76
2022/11/05 05:56:00;;;;;;;10.90;4.70;;;;;;;4.42;100.00;100775.77;103907;1294;70968;-76
2022/11/05 05:58:31;;;;;;;15.20;5.20;;;;;;;4.39;100.00;100774.45;104269;1299;73930;-76
2022/11/05 06:01:03;;;;;;;15.30;5.30;;;;;;;4.37;100.00;100772.02;104737;1287;64219;-76
2022/11/05 06:03:30;;;;;;;19.10;5.60;;;;;;;4.34;100.00;100772.80;103803;1300;61187;-76
2022/11/05 06:06:08;;;;;;;18.50;5.90;;;;;;;4.32;100.00;100770.71;104289;1291;74435;-76
2022/11/05 06:08:35;;;;;;;23.20;6.30;;;;;;;4.29;100.00;100774.05;103922;1297;71190;-75
2022/11/05 06:11:03;;;;;;;23.70;6.50;;;;;;;4.27;100.00;100774.63;104753;1295;72776;-76
2022/11/05 06:13:30;;;;;;;22.90;6.40;;;;;;;4.26;100.00;100778.88;103689;1301;61541;-76
2022/11/05 06:16:01;;;;;;;20.10;7.20;;;;;;;4.24;100.00;100784.09;103951;1301;61386;-77
2022/11/05 06:18:29;;;;;;;23.10;7.90;;;;;;;4.23;100.00;100782.67;103893;1293;74348;-76
2022/11/05 06:21:03;;;;;;;24.90;7.40;;;;;;;4.22;100.00;100783.12;104733;1297;69548;-77
2022/11/05 06:23:32;;;;;;;20.20;7.60;;;;;;;4.20;100.00;100780.96;104362;1284;71345;-77
2022/11/05 06:26:04;;;;;;;24.60;8.00;;;;;;;4.20;100.00;100783.64;104352;1301;59543;-76
2022/11/05 06:28:30;;;;;;;22.90;8.10;;;;;;;4.19;100.00;100789.09;104311;1291;59235;-77
2022/11/05 06:30:57;;;;;;;27.90;8.60;;;;;;;4.19;100.00;100787.59;104285;1297;74641;-77
2022/11/05 06:33:24;;;;;;;24.90;8.60;;;;;;;4.19;100.00;100793.36;103402;1287;70630;-77
2022/11/05 06:35:52;;;;;;;27.50;8.80;;;;;;;4.19;100.00;100795.05;104289;1291;72992;-77
2022/11/05 06:38:19;;;;;;;29.80;9.90;;;;;;;4.20;100.00;100798.45;104419;1295;61254;-77
2022/11/05 06:40:46;;;;;;;25.60;9.20;;;;;;;4.22;100.00;100802.29;104570;1294;61379;-77
2022/11/05 06:43:12;;;;;;;26.60;9.50;;;;;;;4.25;100.00;100801.21;103925;1297;74981;-77
2022/11/05 06:45:39;;;;;;;29.10;9.40;;;;;;;4.28;100.00;100806.73;103948;1287;71411;-77
2022/11/05 06:48:06;;;;;;;27.70;10.20;;;;;;;4.31;100.00;100810.14;104651;1294;71328;-77
2022/11/05 06:50:32;;;;;;;29.70;10.60;;;;;;;4.35;100.00;100814.85;103762;1295;61318;-77
2022/11/05 06:53:01;;;;;;;29.70;10.30;;;;;;;4.39;100.00;100818.58;103834;1292;61391;-77
2022/11/05 06:55:29;;;;;;;28.40;10.20;;;;;;;4.43;100.00;100823.45;104183;1284;74488;-76
2022/11/05 06:57:56;;;;;;;35.60;11.10;;;;;;;4.48;100.00;100823.38;105213;1289;70617;-76
2022/11/05 07:00:23;;;;;;;38.60;11.60;;;;;;;4.55;100.00;100825.08;103537;1292;72969;-76
2022/11/05 07:02:50;;;;;;;28.70;10.50;;;;;;;4.61;100.00;100831.89;103504;1298;60939;-76
2022/11/05 07:05:16;;;;;;;30.10;11.30;;;;;;;4.68;100.00;100831.63;104294;1293;62891;-77
2022/11/05 07:07:44;;;;;;;33.40;10.90;;;;;;;4.75;100.00;100834.53;104446;1291;59657;-76
2022/11/05 07:10:14;;;;;;;33.70;11.10;;;;;;;4.82;100.00;100841.30;103985;1294;69872;-76
2022/11/05 07:12:41;;;;;;;28.00;10.50;;;;;;;4.89;100.00;100842.07;104932;1292;73549;-77
2022/11/05 07:15:10;;;;;;;29.30;10.70;;;;;;;4.97;100.00;100844.05;104486;1283;61149;-77
2022/11/05 07:17:37;;;;;;;32.60;11.00;;;;;;;5.04;100.00;100843.73;104159;1299;61251;-76
2022/11/05 07:20:06;;;;;;;30.20;11.10;;;;;;;5.12;100.00;100847.05;103459;1294;74617;-76
2022/11/05 07:22:34;;;;;;;29.40;10.70;;;;;;;5.21;100.00;100848.94;104350;1293;69866;-77
2022/11/05 07:25:00;;;;;;;26.80;10.40;;;;;;;5.27;100.00;100848.42;104838;1294;71606;-77
2022/11/05 07:27:27;;;;;;;25.60;10.60;;;;;;;5.32;100.00;100856.54;104299;1292;61311;-77
2022/11/05 07:29:54;;;;;;;26.20;11.30;;;;;;;5.38;100.00;100862.11;103481;1294;60308;-77
2022/11/05 07:32:20;;;;;;;27.70;11.30;;;;;;;5.46;100.00;100865.09;104938;1291;61174;-76
2022/11/05 07:34:47;;;;;;;29.70;11.90;;;;;;;5.54;100.00;100862.82;104666;1285;70325;-76
2022/11/05 07:37:15;;;;;;;25.10;11.20;;;;;;;5.62;100.00;100855.42;104000;1294;71738;-75
2022/11/05 07:39:42;;;;;;;27.40;10.90;;;;;;;5.71;100.00;100858.46;103710;1300;62398;-76
2022/11/05 07:42:12;;;;;;;24.10;11.20;;;;;;;5.80;100.00;100862.56;104081;1298;61212;-76
2022/11/05 07:44:38;;;;;;;25.80;10.90;;;;;;;5.90;100.00;100868.32;104559;1295;73692;-75
2022/11/05 07:47:05;;;;;;;34.10;12.10;;;;;;;6.01;100.00;100873.16;104266;1285;61219;-77
2022/11/05 07:49:32;;;;;;;26.70;11.20;;;;;;;6.11;100.00;100874.16;103734;1297;72549;-76
2022/11/05 07:51:59;;;;;;;22.10;10.50;;;;;;;6.22;100.00;100874.38;104662;1285;61330;-76
2022/11/05 07:54:26;;;;;;;24.10;11.90;;;;;;;6.33;100.00;100874.29;104516;1292;61165;-77
2022/11/05 07:56:55;;;;;;;26.10;12.30;;;;;;;6.43;100.00;100876.84;103836;1296;74878;-75
2022/11/05 07:59:22;;;;;;;21.10;11.00;;;;;;;6.52;100.00;100876.67;103933;1299;71154;-76
2022/11/05 08:01:48;;;;;;;23.50;11.50;;;;;;;6.62;100.00;100877.36;104560;1286;61302;-76
2022/11/05 08:04:15;;;;;;;25.20;12.20;;;;;;;6.70;100.00;100880.73;103991;1292;61415;-75
2022/11/05 08:06:42;;;;;;;20.20;11.10;;;;;;;6.80;100.00;100881.14;104001;1302;61306;-76
2022/11/05 08:09:08;;;;;;;20.00;12.10;;;;;;;6.85;99.84;100886.59;104308;1295;74331;-76
2022/11/05 08:11:35;;;;;;;19.70;12.50;;;;;;;6.91;99.77;100888.77;104680;1297;60127;-74
2022/11/05 08:14:02;;;;;;;21.10;12.10;;;;;;;6.99;99.85;100892.46;104026;1291;61393;-74
2022/11/05 08:16:29;;;;;;;20.80;12.20;;;;;;;7.05;99.27;100894.67;103542;1291;61237;-74
2022/11/05 08:18:56;;;;;;;22.50;12.40;;;;;;;7.10;98.78;100899.63;104854;1291;61302;-74
2022/11/05 08:21:22;;;;;;;21.40;12.20;;;;;;;7.18;98.82;100904.88;104134;1299;60388;-74
2022/11/05 08:23:49;;;;;;;20.40;12.30;;;;;;;7.26;98.54;100900.95;103934;1297;60307;-74
2022/11/05 08:26:15;;;;;;;19.70;11.50;;;;;;;7.29;97.81;100901.85;104544;1294;61297;-74
2022/11/05 08:28:42;;;;;;;19.60;11.50;;;;;;;7.31;97.52;100902.23;103769;1294;61420;-74
2022/11/05 08:31:08;;;;;;;17.30;10.90;;;;;;;7.32;96.96;100901.91;104729;1292;61578;-74
2022/11/05 08:33:35;;;;;;;21.80;11.10;;;;;;;7.38;96.65;100907.88;104784;1299;61524;-75
2022/11/05 08:36:03;;;;;;;21.40;11.70;;;;;;;7.46;97.28;100908.90;104424;1295;61318;-74
2022/11/05 08:38:29;;;;;;;17.20;10.80;;;;;;;7.54;96.62;100917.44;104507;1292;71182;-74
2022/11/05 08:40:57;;;;;;;18.20;10.60;;;;;;;7.57;95.91;100922.45;104148;1298;59993;-75
2022/11/05 08:43:24;;;;;;;19.30;11.60;;;;;;;7.55;95.70;100923.63;104237;1293;61358;-74
2022/11/05 08:45:50;;;;;;;15.80;10.70;;;;;;;7.56;95.79;100924.29;104527;1301;74104;-74
2022/11/05 08:48:18;;;;;;;17.40;9.90;;;;;;;7.56;95.69;100926.21;104027;1288;61529;-75
2022/11/05 08:50:46;;;;;;;16.90;10.40;;;;;;;7.64;95.89;100927.02;104411;1297;70443;-75
2022/11/05 08:53:13;;;;;;;17.50;10.80;;;;;;;7.72;95.96;100931.87;104435;1295;61861;-75
2022/11/05 08:55:40;;;;;;;18.80;10.90;;;;;;;7.84;96.20;100928.98;104514;1291;61220;-75
2022/11/05 08:58:11;;;;;;;14.70;9.70;;;;;;;7.95;95.83;100934.49;103994;1297;73096;-75
2022/11/05 09:00:38;;;;;;;15.80;10.00;;;;;;;8.04;95.12;100937.15;105463;1293;71330;-74
2022/11/05 09:03:07;;;;;;;14.50;9.10;;;;;;;8.10;94.72;100937.93;103982;1294;71581;-73
2022/11/05 09:05:36;;;;;;;13.50;8.60;;;;;;;8.18;94.33;100943.53;104139;1294;61781;-74
2022/11/05 09:08:04;;;;;;;15.00;9.20;;;;;;;8.26;93.79;100934.67;104501;1288;61334;-73
2022/11/05 09:10:31;;;;;;;11.50;8.40;;;;;;;8.31;93.49;100940.80;104495;1297;75606;-74
2022/11/05 09:12:58;;;;;;;13.10;8.30;;;;;;;8.36;92.82;100940.45;103979;1300;70506;-74
2022/11/05 09:15:24;;;;;;;14.80;8.20;;;;;;;8.46;92.91;100944.11;104118;1300;71783;-73
2022/11/05 09:17:51;;;;;;;14.90;8.70;;;;;;;8.55;92.47;100948.13;104654;1286;61172;-73
2022/11/05 09:20:18;;;;;;;11.90;7.80;;;;;;;8.59;91.65;100951.45;104352;1294;61787;-73
2022/11/05 09:22:45;;;;;;;12.10;7.90;;;;;;;8.63;91.34;100951.73;104398;1287;74623;-73
2022/11/05 09:25:14;;;;;;;13.30;7.70;;;;;;;8.67;91.03;100953.23;104681;1297;70315;-73
2022/11/05 09:27:41;;;;;;;15.50;7.30;;;;;;;8.72;90.84;100962.42;104390;1294;70324;-74
2022/11/05 09:30:10;;;;;;;14.40;8.00;;;;;;;8.80;91.07;100965.02;104862;1285;62260;-74
2022/11/05 09:32:36;;;;;;;12.80;7.40;;;;;;;8.91;91.32;100966.65;104639;1300;59622;-74
2022/11/05 09:35:04;;;;;;;10.90;7.00;;;;;;;9.01;90.46;100964.65;104236;1292;62656;-72
2022/11/05 09:37:30;;;;;;;13.10;7.10;;;;;;;9.09;89.92;100967.64;104388;1292;70368;-73
2022/11/05 09:39:57;;;;;;;13.10;7.10;;;;;;;9.19;89.28;100971.16;103996;1294;59452;-74
2022/11/05 09:42:31;;;;;;;10.90;6.70;;;;;;;9.27;88.57;100975.31;104573;1292;61403;-73
2022/11/05 09:45:07;;;;;;;10.60;6.60;;;;;;;9.30;87.54;100976.39;104535;1294;61474;-74
2022/11/05 09:47:42;;;;;;;12.00;7.80;;;;;;;9.34;87.36;100971.55;105002;1292;73170;-74
2022/11/05 09:50:17;;;;;;;12.70;7.30;;;;;;;9.33;86.85;100978.75;104827;1294;69700;-74
2022/11/05 09:52:44;;;;;;;11.10;7.20;;;;;;;9.36;86.98;100979.49;104166;1293;72908;-73
2022/11/05 09:55:28;;;;;;;10.80;7.10;;;;;;;9.39;86.92;100982.56;104163;1291;61800;-73
2022/11/05 09:58:01;;;;;;;12.00;6.90;;;;;;;9.39;86.29;100983.08;104106;1287;62429;-74
2022/11/05 10:00:28;;;;;;;11.90;7.20;;;;;;;9.44;86.79;100982.43;104285;1302;75109;-74
2022/11/05 10:02:59;;;;;;;11.90;7.20;;;;;;;9.53;87.03;100980.98;104274;1298;70144;-73
2022/11/05 10:05:27;;;;;;;11.60;6.60;;;;;;;9.63;87.24;100977.90;104405;1292;71251;-74
2022/11/05 10:08:04;;;;;;;12.30;7.40;;;;;;;9.75;86.85;100977.52;105095;1291;61277;-74
2022/11/05 10:10:51;;;;;;;13.40;7.20;;;;;;;9.88;86.59;100986.42;104425;1294;59397;-74
2022/11/05 10:14:04;;;;;;;10.00;6.10;;;;;;;9.97;85.26;100984.58;104115;1292;74432;-73
2022/11/05 10:16:38;;;;;;;10.40;6.20;;;;;;;10.08;84.80;100989.39;105082;1291;69563;-74
2022/11/05 10:19:13;;;;;;;9.00;5.00;;;;;;;10.16;83.84;100991.91;105618;1290;71507;-74
2022/11/05 10:21:41;;;;;;;9.70;4.80;;;;;;;10.18;82.31;100999.45;105218;1285;61771;-73
2022/11/05 10:24:27;;;;;;;13.00;5.60;;;;;;;10.28;82.95;100993.30;105434;1285;61421;-74
2022/11/05 10:26:54;;;;;;;7.30;4.90;;;;;;;10.31;82.03;100997.98;105672;1291;59797;-75
2022/11/05 10:29:33;;;;;;;8.80;4.90;;;;;;;10.37;82.07;100995.57;105026;1288;70385;-75
2022/11/05 10:32:04;;;;;;;8.90;5.20;;;;;;;10.41;81.73;100993.27;102917;1301;72530;-74
2022/11/05 10:34:34;;;;;;;8.50;4.80;;;;;;;10.40;80.85;100998.02;103498;1298;61422;-76
2022/11/05 10:37:02;;;;;;;10.70;5.30;;;;;;;10.40;80.53;100996.45;103903;1297;61371;-75
2022/11/05 10:39:30;;;;;;;9.70;5.00;;;;;;;10.45;80.64;101004.09;104114;1291;75243;-75
2022/11/05 10:42:25;;;;;;;13.40;6.60;;;;;;;10.46;80.37;101004.85;104059;1294;69833;-75
2022/11/05 10:45:29;;;;;;;10.10;5.70;;;;;;;10.49;80.19;101006.23;104475;1294;72448;-75
2022/11/05 10:48:01;;;;;;;8.50;5.30;;;;;;;10.61;79.96;101015.05;102888;1301;61269;-75
2022/11/05 10:50:29;;;;;;;11.00;5.70;;;;;;;10.68;79.40;101003.83;103036;1298;61301;-75
2022/11/05 10:53:03;;;;;;;10.60;6.40;;;;;;;10.81;79.50;101000.79;103532;1298;73066;-75
2022/11/05 10:55:47;;;;;;;13.10;5.90;;;;;;;10.95;79.51;101004.39;103905;1299;70874;-75
2022/11/05 10:58:19;;;;;;;11.60;5.50;;;;;;;11.11;79.13;101002.33;104692;1291;71179;-74
2022/11/05 11:00:52;;;;;;;9.70;5.50;;;;;;;11.28;77.57;101000.16;104557;1291;61333;-74
2022/11/05 11:03:42;;;;;;;9.80;4.90;;;;;;;11.56;76.96;101000.23;104808;1291;59276;-75
2022/11/05 11:06:36;;;;;;;8.10;5.10;;;;;;;11.80;76.01;100998.98;103587;1298;510992;-75
2022/11/05 11:09:07;;;;;;;7.80;4.20;;;;;;;11.82;73.73;101004.14;103365;1298;70120;-75
2022/11/05 11:11:40;;;;;;;9.80;5.60;;;;;;;11.88;74.10;101002.09;103423;1294;72454;-75
2022/11/05 11:14:12;;;;;;;10.70;5.20;;;;;;;11.95;72.93;101004.53;104388;1297;60431;-75
2022/11/05 11:16:42;;;;;;;8.30;4.70;;;;;;;11.89;71.92;101009.85;104304;1291;61759;-75
2022/11/05 11:19:27;;;;;;;8.90;4.70;;;;;;;11.89;71.36;101008.41;104212;1298;73138;-75
2022/11/05 11:22:02;;;;;;;7.70;4.70;;;;;;;12.08;71.59;101007.95;104053;1291;68627;-76
2022/11/05 11:24:36;;;;;;;7.30;4.00;;;;;;;12.20;69.70;101008.58;104845;1287;72476;-75
2022/11/05 11:27:25;;;;;;;7.70;4.00;;;;;;;12.45;68.86;101011.09;103756;1297;61304;-75
2022/11/05 11:30:00;;;;;;;7.50;4.20;;;;;;;12.81;67.69;101008.41;103831;1292;61315;-76
2022/11/05 11:32:35;;;;;;;8.90;4.80;;;;;;;13.03;66.06;101008.37;104084;1292;73705;-75
2022/11/05 11:35:03;;;;;;;8.60;4.30;;;;;;;13.30;65.63;101011.17;104048;1284;69882;-74
2022/11/05 11:37:40;;;;;;;8.90;4.20;;;;;;;13.62;63.96;101007.55;103839;1286;71152;-75
2022/11/05 11:40:13;;;;;;;7.70;4.90;;;;;;;13.93;62.71;101018.15;104981;1294;61531;-73
2022/11/05 11:42:45;;;;;;;7.50;4.40;;;;;;;14.02;61.61;101018.70;104387;1298;61283;-74
2022/11/05 11:45:27;;;;;;;7.40;3.70;;;;;;;14.28;61.14;101015.99;103966;1299;76096;-73
2022/11/05 11:47:55;;;;;;;9.40;4.10;;;;;;;14.40;60.29;101015.70;103990;1298;71290;-73
2022/11/05 11:50:43;;;;;;;10.90;4.30;;;;;;;14.61;59.01;101017.89;103472;1301;72500;-73
2022/11/05 11:53:18;;;;;;;8.20;4.10;;;;;;;14.95;58.25;101010.22;104266;1290;61276;-74
2022/11/05 11:55:54;;;;;;;8.20;4.60;;;;;;;15.42;57.69;101003.11;103415;1301;59767;-72
2022/11/05 11:58:24;;;;;;;9.10;5.40;;;;;;;15.68;56.43;101009.13;104336;1294;73633;-72
2022/11/05 12:01:04;;;;;;;7.10;5.10;;;;;;;15.88;55.58;101003.16;103946;1301;70571;-71
2022/11/05 12:03:40;;;;;;;8.50;5.20;;;;;;;16.13;54.69;101002.05;103648;1301;72471;-73
2022/11/05 12:06:13;;;;;;;8.10;5.30;;;;;;;16.34;53.52;101002.77;103493;1295;61404;-71
2022/11/05 12:08:59;;;;;;;9.30;5.50;;;;;;;16.62;52.92;100998.06;103798;1301;61195;-74
2022/11/05 12:12:01;;;;;;;7.50;4.60;;;;;;;17.14;52.64;100990.36;105678;1293;73965;-72
2022/11/05 12:14:57;;;;;;;8.20;4.60;;;;;;;17.43;50.20;100997.73;105622;1294;70854;-73
2022/11/05 12:17:43;;;;;;;7.70;4.80;;;;;;;17.85;49.82;100995.00;104990;1285;72430;-73